METAR Data
IDs: Format: Raw Decoded Include TAF

Data at: 0837 UTC 03 Aug 2021

KHWD 030823Z 34005KT 10SM BKN009 14/12 A3004 RMK AO2 T01390122
KHWD 030754Z 33006KT 10SM FEW010 14/12 A3005 RMK AO2 SLP184 T01390122 402390139
KHWD 030745Z 33006KT 10SM SCT010 14/12 A3005 RMK AO2 T01390122
KHWD 030719Z 33006KT 10SM BKN011 14/12 A3005 RMK AO2 T01440117
KHWD 030654Z 33004KT 10SM FEW011 14/12 A3005 RMK AO2 SLP184 T01440122
KHWD 030554Z 33006KT 10SM CLR 15/12 A3005 RMK AO2 SLP185 T01500122 10228 20150 51008
KHWD 030454Z 32007KT 10SM CLR 16/12 A3005 RMK AO2 SLP185 T01560122
KHWD 030354Z 30007KT 10SM CLR 17/12 A3004 RMK AO2 SLP180 T01670117
KHWD 030254Z 30008KT 10SM CLR 18/12 A3003 RMK AO2 SLP177 T01830122 55003
KHWD 030154Z 29011KT 10SM CLR 19/13 A3003 RMK AO2 SLP176 T01890128
KHWD 030054Z 29016KT 10SM CLR 22/13 A3004 RMK AO2 SLP180 T02170128
KHWD 022354Z 30013KT 10SM CLR 22/13 A3004 RMK AO2 SLP180 T02220128 10239 20189 56015
KHWD 022254Z 28012KT 10SM CLR 22/12 A3005 RMK AO2 SLP184 T02220122
KHWD 022154Z 29013KT 10SM CLR 23/13 A3006 RMK AO2 SLP189 T02330128
KHWD 022054Z 27012KT 10SM CLR 23/13 A3008 RMK AO2 SLP195 T02280128 58011
KHWD 021954Z 31006KT 10SM CLR 23/12 A3009 RMK AO2 SLP198 T02280122
KHWD 021854Z 30007KT 10SM CLR 21/12 A3011 RMK AO2 SLP203 T02110122
KHWD 021754Z VRB06KT 10SM CLR 19/13 A3011 RMK AO2 SLP206 T01890128 10189 20156 58001
KHWD 021701Z 28009KT 10SM SCT022 18/12 A3011 RMK AO2 T01780122
KHWD 021654Z 29007KT 240V300 10SM BKN017 18/12 A3011 RMK AO2 SLP206 T01830122
KHWD 021554Z VRB05KT 10SM BKN017 17/12 A3012 RMK AO2 SLP207 T01720122
KHWD 021454Z 32006KT 10SM BKN017 17/12 A3012 RMK AO2 SLP207 T01670122 53015
KHWD 021354Z 33006KT 10SM OVC017 16/12 A3011 RMK AO2 SLP203 T01610117
KHWD 021254Z 33004KT 10SM OVC018 16/12 A3008 RMK AO2 SLP195 T01560122
KHWD 021211Z 00000KT 10SM BKN018 16/12 A3007 RMK AO2 T01560122
KHWD 021154Z 35003KT 10SM SCT018 15/12 A3007 RMK AO2 SLP192 T01500122 10167 20150 50001
KHWD 021131Z 31003KT 10SM SCT018 15/12 A3007 RMK AO2 T01500117
KHWD 021108Z 30004KT 10SM BKN018 15/12 A3007 RMK AO2 T01500117
KHWD 021054Z 29004KT 10SM SCT018 16/12 A3007 RMK AO2 SLP192 T01560117
KHWD 021022Z 28004KT 10SM BKN019 16/12 A3007 RMK AO2 T01560122
KHWD 020954Z 31004KT 10SM FEW018 16/12 A3007 RMK AO2 SLP191 T01560122
KHWD 020854Z 29004KT 10SM BKN019 17/12 A3008 RMK AO2 SLP195 T01670122 58001
KHWD 020754Z 31004KT 10SM OVC020 17/12 A3009 RMK AO2 SLP197 T01670122 402280150
KHWD 020737Z 34004KT 10SM BKN020 17/12 A3009 RMK AO2 T01670122
KHWD 020654Z 33005KT 10SM CLR 16/12 A3009 RMK AO2 SLP197 T01610122
KHWD 020554Z 29007KT 10SM CLR 17/12 A3008 RMK AO2 SLP196 T01670122 10211 20167 51009
KHWD 020454Z 30009KT 10SM CLR 17/12 A3008 RMK AO2 SLP194 T01670122
KHWD 020354Z 30012KT 10SM CLR 17/12 A3007 RMK AO2 SLP190 T01720122
KHWD 020254Z 31013KT 10SM CLR 18/12 A3006 RMK AO2 SLP187 T01780122 53004
KHWD 020154Z 29014KT 10SM CLR 19/12 A3004 RMK AO2 SLP181 T01890122
KHWD 020054Z 30015G19KT 10SM CLR 21/13 A3004 RMK AO2 SLP181 T02060128
KHWD 012354Z 30015KT 10SM CLR 22/13 A3004 RMK AO2 SLP183 T02170128 10228 20183 58005
KHWD 012254Z 30014KT 10SM CLR 22/13 A3005 RMK AO2 SLP185 T02170133
KHWD 012154Z 30014KT 10SM CLR 22/13 A3006 RMK AO2 SLP187 T02220128
KHWD 012054Z 29014KT 10SM CLR 22/13 A3006 RMK AO2 SLP187 T02220128 56008